Time;durP1;ratioP1;P1;durP2;ratioP2;P2;SDS_P1;SDS_P2;PMS_P1;PMS_P2;Temp;Humidity;BMP_temperature;BMP_pressure;BME280_temperature;BME280_humidity;BME280_pressure;Samples;Min_cycle;Max_cycle;Signal;HPM_P1;HPM_P2
2023/06/30 00:00:12;;;;;;;6.13;2.20;;;17.60;99.90;;;;;;5026139;28;20087;-43
2023/06/30 00:02:39;;;;;;;4.93;2.20;;;17.50;99.90;;;;;;5027103;28;20028;-42
2023/06/30 00:05:05;;;;;;;7.00;2.50;;;17.40;99.90;;;;;;5006408;28;20038;-43
2023/06/30 00:07:31;;;;;;;4.20;1.80;;;17.30;99.90;;;;;;5022691;28;20041;-42
2023/06/30 00:09:56;;;;;;;7.55;2.05;;;17.20;99.90;;;;;;5025287;28;20705;-42
2023/06/30 00:12:22;;;;;;;7.20;2.05;;;17.20;99.90;;;;;;5026634;28;20491;-42
2023/06/30 00:14:47;;;;;;;3.28;2.00;;;17.20;99.90;;;;;;5025808;28;20060;-42
2023/06/30 00:17:13;;;;;;;6.05;1.95;;;17.20;99.90;;;;;;5024975;28;20472;-42
2023/06/30 00:19:38;;;;;;;6.22;2.30;;;17.20;99.90;;;;;;5026173;28;20110;-43
2023/06/30 00:22:04;;;;;;;3.85;1.70;;;17.10;99.90;;;;;;5025514;28;20024;-43
2023/06/30 00:24:30;;;;;;;4.25;1.70;;;17.10;99.90;;;;;;5026168;28;20021;-43
2023/06/30 00:26:55;;;;;;;5.93;2.65;;;17.10;99.90;;;;;;5025551;28;20021;-42
2023/06/30 00:29:21;;;;;;;5.95;2.35;;;17.00;99.90;;;;;;5026226;28;20029;-42
2023/06/30 00:31:52;;;;;;;6.10;2.30;;;16.90;99.90;;;;;;5025653;28;20427;-42
2023/06/30 00:34:17;;;;;;;5.57;2.20;;;16.80;99.90;;;;;;5026306;28;20033;-42
2023/06/30 00:36:43;;;;;;;3.17;1.85;;;16.80;99.90;;;;;;5025954;28;20075;-42
2023/06/30 00:39:09;;;;;;;5.55;2.17;;;16.80;99.90;;;;;;5024158;28;20037;-43
2023/06/30 00:41:34;;;;;;;4.85;2.15;;;16.80;99.90;;;;;;5026162;28;20029;-42
2023/06/30 00:44:01;;;;;;;5.55;2.10;;;16.80;99.90;;;;;;5026290;28;20029;-42
2023/06/30 00:46:27;;;;;;;4.32;1.80;;;16.80;99.90;;;;;;5025281;28;20081;-42
2023/06/30 00:48:53;;;;;;;5.90;1.77;;;16.80;99.90;;;;;;5024911;28;20040;-42
2023/06/30 00:51:19;;;;;;;2.78;1.70;;;16.70;99.90;;;;;;5025843;28;20041;-42
2023/06/30 00:53:45;;;;;;;7.22;2.05;;;16.70;99.90;;;;;;5025427;28;20021;-42
2023/06/30 00:56:11;;;;;;;4.88;2.03;;;16.70;99.90;;;;;;5024519;28;20460;-42
2023/06/30 00:58:36;;;;;;;3.88;1.80;;;16.60;99.90;;;;;;5024134;28;20017;-43
2023/06/30 01:01:17;;;;;;;4.25;1.88;;;16.60;99.90;;;;;;5025132;28;20025;-43
2023/06/30 01:03:48;;;;;;;5.05;2.20;;;16.60;99.90;;;;;;5023315;28;20040;-42
2023/06/30 01:06:37;;;;;;;5.40;2.10;;;16.60;99.90;;;;;;5025013;28;20570;-42
2023/06/30 01:09:17;;;;;;;3.75;1.60;;;16.60;99.90;;;;;;5024929;28;20602;-43
2023/06/30 01:11:43;;;;;;;4.25;2.00;;;16.50;99.90;;;;;;5025130;28;20044;-42
2023/06/30 01:14:10;;;;;;;5.32;2.10;;;16.50;99.90;;;;;;5024407;28;20014;-42
2023/06/30 01:16:39;;;;;;;3.13;1.63;;;16.50;99.90;;;;;;5026223;28;20021;-43
2023/06/30 01:19:11;;;;;;;4.45;1.98;;;16.50;99.90;;;;;;5024516;28;20021;-42
2023/06/30 01:21:38;;;;;;;5.75;2.08;;;16.50;99.90;;;;;;5025174;28;20107;-42
2023/06/30 01:24:09;;;;;;;3.95;1.98;;;16.50;99.90;;;;;;5025628;28;20029;-43
2023/06/30 01:26:35;;;;;;;7.07;2.30;;;16.50;99.90;;;;;;5015471;28;20128;-42
2023/06/30 01:29:03;;;;;;;5.05;2.30;;;16.50;99.90;;;;;;5024490;28;20071;-42
2023/06/30 01:31:31;;;;;;;4.20;1.80;;;16.50;99.90;;;;;;5025957;28;20106;-43
2023/06/30 01:33:58;;;;;;;5.18;2.30;;;16.40;99.90;;;;;;5025304;28;20033;-41
2023/06/30 01:36:24;;;;;;;3.97;2.03;;;16.40;99.90;;;;;;5020250;28;20112;-42
2023/06/30 01:38:50;;;;;;;3.78;1.70;;;16.30;99.90;;;;;;5023994;28;20131;-41
2023/06/30 01:41:15;;;;;;;4.60;1.90;;;16.30;99.90;;;;;;5024916;28;20036;-42
2023/06/30 01:43:41;;;;;;;6.75;2.35;;;16.30;99.90;;;;;;5024721;28;20013;-42
2023/06/30 01:46:07;;;;;;;5.78;2.10;;;16.20;99.90;;;;;;5023327;28;20030;-42
2023/06/30 01:48:34;;;;;;;4.40;2.60;;;16.20;99.90;;;;;;5015952;28;20033;-42
2023/06/30 01:51:00;;;;;;;5.93;2.03;;;16.10;99.90;;;;;;5021137;28;20029;-42
2023/06/30 01:53:26;;;;;;;4.05;2.42;;;16.10;99.90;;;;;;5024519;28;20389;-42
2023/06/30 01:55:54;;;;;;;3.63;2.08;;;16.10;99.90;;;;;;5015691;28;20476;-42
2023/06/30 01:58:20;;;;;;;4.57;2.50;;;16.10;99.90;;;;;;5013557;28;20391;-42
2023/06/30 02:00:46;;;;;;;7.00;2.60;;;16.00;99.90;;;;;;5017352;28;20025;-42
2023/06/30 02:03:12;;;;;;;4.28;2.22;;;16.10;99.90;;;;;;5023905;28;20500;-42
2023/06/30 02:05:37;;;;;;;4.50;2.30;;;16.10;99.90;;;;;;5021399;28;20045;-42
2023/06/30 02:08:03;;;;;;;5.15;2.53;;;16.00;99.90;;;;;;5018790;28;20021;-42
2023/06/30 02:10:29;;;;;;;5.22;2.50;;;15.90;99.90;;;;;;5022997;28;20049;-42
2023/06/30 02:12:55;;;;;;;6.13;3.03;;;15.80;99.90;;;;;;5023927;28;20461;-42
2023/06/30 02:15:21;;;;;;;5.28;3.03;;;15.70;99.90;;;;;;5024541;28;20041;-42
2023/06/30 02:17:46;;;;;;;4.88;2.83;;;15.60;99.90;;;;;;5019163;28;20036;-43
2023/06/30 02:20:12;;;;;;;7.63;2.83;;;15.50;99.90;;;;;;5023882;28;20112;-42
2023/06/30 02:22:38;;;;;;;5.13;2.90;;;15.40;99.90;;;;;;5024115;28;20025;-42
2023/06/30 02:25:05;;;;;;;5.88;2.90;;;15.30;99.90;;;;;;5023157;28;20088;-42
2023/06/30 02:27:33;;;;;;;6.32;2.90;;;15.20;99.90;;;;;;5023800;28;20058;-42
2023/06/30 02:30:04;;;;;;;4.72;2.60;;;15.20;99.90;;;;;;5024199;28;20037;-42
2023/06/30 02:32:38;;;;;;;4.55;2.45;;;15.20;99.90;;;;;;5024220;28;20084;-42
2023/06/30 02:35:08;;;;;;;3.67;2.50;;;15.20;99.90;;;;;;5024528;28;20040;-43
2023/06/30 02:37:40;;;;;;;6.60;2.83;;;15.30;99.90;;;;;;5023976;28;20029;-42
2023/06/30 02:40:06;;;;;;;5.82;2.60;;;15.30;99.90;;;;;;5023691;28;20040;-42
2023/06/30 02:42:32;;;;;;;4.45;2.63;;;15.30;99.90;;;;;;5024390;28;20053;-42
2023/06/30 02:44:58;;;;;;;5.00;3.35;;;15.40;99.90;;;;;;5023550;28;20053;-42
2023/06/30 02:47:26;;;;;;;5.10;2.28;;;15.40;99.90;;;;;;5023706;28;20132;-42
2023/06/30 02:49:51;;;;;;;5.18;2.40;;;15.30;99.90;;;;;;5023240;28;20056;-43
2023/06/30 02:52:17;;;;;;;4.95;2.47;;;15.30;99.90;;;;;;5022866;28;20469;-42
2023/06/30 02:54:43;;;;;;;4.03;2.65;;;15.20;99.90;;;;;;5023740;28;20040;-43
2023/06/30 02:57:08;;;;;;;4.30;2.60;;;15.10;99.90;;;;;;5023873;28;20140;-43
2023/06/30 02:59:34;;;;;;;5.00;2.78;;;15.10;99.90;;;;;;5022788;28;20476;-43
2023/06/30 03:02:00;;;;;;;4.90;2.40;;;15.00;99.90;;;;;;5023222;28;20385;-42
2023/06/30 03:04:25;;;;;;;3.90;2.30;;;14.90;99.90;;;;;;5024217;28;20128;-42
2023/06/30 03:06:51;;;;;;;3.53;2.30;;;14.90;99.90;;;;;;5023249;28;20117;-42
2023/06/30 03:09:16;;;;;;;5.20;2.28;;;14.90;99.90;;;;;;5022154;28;20026;-44
2023/06/30 03:11:42;;;;;;;7.35;2.88;;;14.80;99.90;;;;;;5014248;28;20198;-43
2023/06/30 03:14:11;;;;;;;4.00;2.20;;;14.80;99.90;;;;;;5019053;28;20045;-43
2023/06/30 03:16:37;;;;;;;3.67;2.60;;;14.80;99.90;;;;;;5023610;28;20025;-42
2023/06/30 03:19:02;;;;;;;3.90;1.95;;;14.70;99.90;;;;;;5023842;28;20033;-42
2023/06/30 03:21:28;;;;;;;4.30;2.30;;;14.70;99.90;;;;;;5027057;28;20575;-42
2023/06/30 03:23:53;;;;;;;2.92;1.92;;;14.70;99.90;;;;;;5027540;28;20021;-42
2023/06/30 03:26:23;;;;;;;7.90;2.40;;;14.70;99.90;;;;;;5026327;28;20038;-42
2023/06/30 03:28:48;;;;;;;3.20;2.00;;;14.70;99.90;;;;;;5025283;28;20493;-42
2023/06/30 03:31:14;;;;;;;4.40;2.30;;;14.60;99.90;;;;;;5027158;28;20056;-43
2023/06/30 03:33:42;;;;;;;3.83;2.10;;;14.60;99.90;;;;;;5027338;28;20029;-43
2023/06/30 03:36:09;;;;;;;2.80;1.95;;;14.60;99.90;;;;;;5026404;28;20053;-43
2023/06/30 03:38:35;;;;;;;3.33;1.95;;;14.50;99.90;;;;;;5027142;28;20029;-43
2023/06/30 03:41:00;;;;;;;4.47;2.35;;;14.50;99.90;;;;;;5026387;28;20328;-42
2023/06/30 03:43:29;;;;;;;5.72;2.00;;;14.50;99.90;;;;;;5027650;28;20109;-42
2023/06/30 03:45:54;;;;;;;5.43;2.30;;;14.50;99.90;;;;;;5027760;28;20826;-42
2023/06/30 03:48:20;;;;;;;6.28;2.50;;;14.40;99.90;;;;;;5026800;28;20100;-41
2023/06/30 03:50:51;;;;;;;5.65;2.30;;;14.40;99.90;;;;;;5026392;28;20092;-42
2023/06/30 03:53:17;;;;;;;4.57;2.53;;;14.40;99.90;;;;;;5026896;28;20029;-42
2023/06/30 03:55:42;;;;;;;4.38;2.08;;;14.30;99.90;;;;;;5026168;28;20038;-42
2023/06/30 03:58:08;;;;;;;6.68;2.58;;;14.30;99.90;;;;;;5027204;28;20071;-42
2023/06/30 04:00:33;;;;;;;3.80;1.90;;;14.30;99.90;;;;;;5026726;28;20125;-42
2023/06/30 04:02:59;;;;;;;3.50;2.03;;;14.30;99.90;;;;;;5025054;28;20033;-43
2023/06/30 04:05:25;;;;;;;3.58;1.90;;;14.30;99.90;;;;;;5026019;28;20034;-43
2023/06/30 04:07:51;;;;;;;10.05;2.83;;;14.30;99.90;;;;;;5026872;28;20610;-42
2023/06/30 04:10:16;;;;;;;4.70;2.67;;;14.30;99.90;;;;;;5025203;28;20061;-41
2023/06/30 04:12:42;;;;;;;6.03;2.40;;;14.30;99.90;;;;;;5027278;28;20025;-42
2023/06/30 04:15:10;;;;;;;4.45;2.30;;;14.30;99.90;;;;;;5025674;28;20029;-43
2023/06/30 04:17:35;;;;;;;6.60;2.42;;;14.30;99.90;;;;;;5025977;28;20148;-43
2023/06/30 04:20:03;;;;;;;4.32;2.10;;;14.30;99.90;;;;;;5026267;28;20518;-43
2023/06/30 04:22:28;;;;;;;4.88;2.45;;;14.30;99.90;;;;;;5026809;28;20504;-42
2023/06/30 04:24:54;;;;;;;6.63;2.20;;;14.30;99.90;;;;;;5025575;28;20025;-42
2023/06/30 04:27:19;;;;;;;5.18;2.03;;;14.30;99.90;;;;;;5025185;28;20691;-42
2023/06/30 04:29:45;;;;;;;3.55;2.10;;;14.30;99.90;;;;;;5025489;28;20091;-42
2023/06/30 04:32:11;;;;;;;2.45;1.40;;;14.40;99.90;;;;;;5025301;28;20021;-42
2023/06/30 04:34:36;;;;;;;5.03;1.83;;;14.40;99.90;;;;;;5026339;28;20117;-43
2023/06/30 04:37:02;;;;;;;3.22;1.58;;;14.40;99.90;;;;;;5026305;28;20063;-43
2023/06/30 04:39:27;;;;;;;4.30;1.80;;;14.50;99.90;;;;;;5025175;28;20630;-43
2023/06/30 04:41:56;;;;;;;4.35;1.90;;;14.40;99.90;;;;;;5026006;28;20389;-42
2023/06/30 04:44:21;;;;;;;4.78;2.00;;;14.50;99.90;;;;;;5025204;28;20033;-42
2023/06/30 04:49:42;;;;;;;3.47;1.67;;;14.50;99.90;;;;;;5000033;28;20049;-42
2023/06/30 04:52:08;;;;;;;2.33;1.50;;;14.50;99.90;;;;;;5024543;28;20388;-42
2023/06/30 04:54:35;;;;;;;5.55;1.70;;;14.60;99.90;;;;;;5024948;28;20029;-42
2023/06/30 04:57:01;;;;;;;3.10;1.50;;;14.60;99.90;;;;;;5024187;28;20063;-42
2023/06/30 04:59:27;;;;;;;2.25;1.48;;;14.70;99.90;;;;;;5024891;28;20487;-43
2023/06/30 05:01:53;;;;;;;2.75;1.75;;;14.70;99.90;;;;;;5024956;28;20092;-42
2023/06/30 05:04:24;;;;;;;2.17;1.40;;;14.70;99.90;;;;;;5021912;28;20473;-41
2023/06/30 05:06:50;;;;;;;5.47;1.70;;;14.80;99.90;;;;;;5024726;28;20436;-41
2023/06/30 05:09:16;;;;;;;4.53;1.40;;;14.80;99.90;;;;;;5026107;28;20056;-41
2023/06/30 05:11:41;;;;;;;2.58;1.48;;;14.90;99.90;;;;;;5024541;28;20460;-42
2023/06/30 05:14:07;;;;;;;3.33;1.40;;;14.90;99.90;;;;;;5023689;28;20029;-41
2023/06/30 05:16:32;;;;;;;4.85;1.50;;;15.00;99.90;;;;;;5008621;28;20044;-42
2023/06/30 05:18:58;;;;;;;3.58;1.67;;;15.00;99.90;;;;;;5025686;28;20030;-42
2023/06/30 05:21:23;;;;;;;2.95;1.90;;;15.10;99.90;;;;;;5024674;28;20785;-43
2023/06/30 05:23:52;;;;;;;3.78;1.70;;;15.10;99.90;;;;;;5022540;28;20017;-43
2023/06/30 05:26:18;;;;;;;3.63;1.60;;;15.10;99.90;;;;;;5024918;28;20088;-43
2023/06/30 05:28:43;;;;;;;3.60;1.90;;;15.10;99.90;;;;;;5024401;28;20025;-41
2023/06/30 05:31:18;;;;;;;3.67;1.70;;;15.20;99.90;;;;;;5023589;28;20135;-42
2023/06/30 05:33:43;;;;;;;2.50;1.40;;;15.10;99.90;;;;;;5023308;28;20025;-42
2023/06/30 05:36:09;;;;;;;3.65;1.80;;;15.20;99.90;;;;;;5024326;28;20021;-42
2023/06/30 05:38:34;;;;;;;3.92;1.70;;;15.20;99.90;;;;;;5022773;28;20059;-42
2023/06/30 05:41:00;;;;;;;2.45;1.55;;;15.20;99.90;;;;;;5023148;28;20037;-42
2023/06/30 05:43:32;;;;;;;4.05;1.60;;;15.20;99.90;;;;;;5023705;28;20026;-42
2023/06/30 05:45:57;;;;;;;4.43;1.48;;;15.30;99.90;;;;;;5024684;28;20112;-42
2023/06/30 05:48:23;;;;;;;3.88;1.70;;;15.30;99.90;;;;;;5022996;28;20524;-43
2023/06/30 05:50:48;;;;;;;3.28;1.55;;;15.40;99.90;;;;;;5025076;28;20033;-42
2023/06/30 05:53:14;;;;;;;4.95;1.60;;;15.40;99.90;;;;;;5024513;28;20511;-42
2023/06/30 05:55:49;;;;;;;4.68;1.77;;;15.40;99.90;;;;;;5022277;28;20120;-42
2023/06/30 05:58:14;;;;;;;4.10;1.70;;;15.50;99.90;;;;;;5024618;28;20171;-42
2023/06/30 06:00:43;;;;;;;6.45;2.05;;;15.60;99.90;;;;;;5024627;28;20507;-42
2023/06/30 06:03:08;;;;;;;2.80;1.70;;;15.60;99.90;;;;;;5022360;28;20067;-42
2023/06/30 06:05:34;;;;;;;3.42;1.55;;;15.60;99.90;;;;;;5021605;28;20370;-42
2023/06/30 06:08:03;;;;;;;6.32;2.97;;;15.70;99.90;;;;;;5023631;28;20083;-42
2023/06/30 06:10:29;;;;;;;4.13;2.70;;;15.70;99.90;;;;;;5021563;28;20388;-41
2023/06/30 06:12:54;;;;;;;5.75;2.30;;;15.70;99.90;;;;;;5024206;28;20021;-42
2023/06/30 06:15:20;;;;;;;3.55;2.00;;;15.80;99.90;;;;;;5022428;28;20509;-42
2023/06/30 06:17:48;;;;;;;4.50;1.70;;;15.80;99.90;;;;;;5023825;28;20045;-42
2023/06/30 06:20:14;;;;;;;4.57;1.90;;;15.90;99.90;;;;;;5023235;28;20396;-41
2023/06/30 06:22:39;;;;;;;4.35;1.75;;;15.90;99.90;;;;;;5024199;28;20030;-42
2023/06/30 06:25:05;;;;;;;3.13;1.77;;;16.00;99.90;;;;;;5023146;28;20110;-43
2023/06/30 06:27:37;;;;;;;6.07;1.90;;;16.10;99.90;;;;;;5024885;28;20049;-43
2023/06/30 06:30:04;;;;;;;2.95;1.48;;;16.10;99.90;;;;;;5023605;28;20175;-42
2023/06/30 06:32:32;;;;;;;3.53;1.70;;;16.20;99.90;;;;;;5024372;28;20172;-42
2023/06/30 06:34:58;;;;;;;4.10;1.20;;;16.30;99.90;;;;;;5023346;28;20172;-42
2023/06/30 06:37:23;;;;;;;3.92;1.85;;;16.40;99.90;;;;;;5021147;28;20037;-42
2023/06/30 06:39:49;;;;;;;5.00;2.15;;;16.40;99.90;;;;;;5022144;28;20060;-43
2023/06/30 06:42:14;;;;;;;2.92;1.70;;;16.40;99.90;;;;;;5024077;28;20125;-43
2023/06/30 06:44:40;;;;;;;2.20;1.70;;;16.50;99.90;;;;;;5022076;28;20110;-43
2023/06/30 06:47:43;;;;;;;4.68;1.75;;;16.50;99.90;;;;;;5023116;28;20037;-43
2023/06/30 06:50:08;;;;;;;4.05;1.63;;;16.50;99.90;;;;;;5023456;28;20041;-42
2023/06/30 06:52:34;;;;;;;4.32;2.17;;;16.60;99.90;;;;;;5022159;28;20018;-41
2023/06/30 06:55:00;;;;;;;3.38;1.30;;;16.60;99.90;;;;;;5024866;28;20416;-42
2023/06/30 06:57:25;;;;;;;4.45;2.03;;;16.70;99.90;;;;;;5026505;28;20099;-42
2023/06/30 06:59:51;;;;;;;2.72;1.95;;;16.80;99.90;;;;;;5025329;28;20048;-42
2023/06/30 07:02:17;;;;;;;3.25;1.40;;;16.80;99.90;;;;;;5026137;28;20041;-43
2023/06/30 07:04:45;;;;;;;2.10;1.20;;;16.80;99.90;;;;;;5027866;28;20028;-42
2023/06/30 07:07:11;;;;;;;6.25;1.80;;;16.90;99.90;;;;;;5026761;28;20163;-42
2023/06/30 07:09:36;;;;;;;3.80;1.60;;;16.90;99.90;;;;;;5025116;28;20112;-43
2023/06/30 07:12:03;;;;;;;4.25;1.60;;;17.00;99.90;;;;;;5021635;28;20022;-43
2023/06/30 07:14:29;;;;;;;3.83;1.50;;;17.10;99.90;;;;;;5024967;28;20067;-42
2023/06/30 07:16:54;;;;;;;1.88;1.00;;;17.10;99.90;;;;;;5027691;28;20566;-42
2023/06/30 07:19:20;;;;;;;3.90;1.23;;;17.20;99.90;;;;;;5026380;28;20036;-43
2023/06/30 07:21:46;;;;;;;2.42;1.30;;;17.20;99.90;;;;;;5026835;28;20041;-42
2023/06/30 07:24:14;;;;;;;3.55;1.40;;;17.30;99.90;;;;;;5026627;28;20476;-43
2023/06/30 07:26:40;;;;;;;2.92;1.30;;;17.30;99.90;;;;;;5026383;28;20052;-42
2023/06/30 07:29:11;;;;;;;4.10;1.58;;;17.30;99.90;;;;;;5026622;28;20448;-42
2023/06/30 07:31:37;;;;;;;2.33;1.20;;;17.40;99.90;;;;;;5026205;28;20025;-42
2023/06/30 07:34:02;;;;;;;1.52;0.90;;;17.40;99.90;;;;;;5026799;28;20267;-42
2023/06/30 07:36:28;;;;;;;1.58;1.00;;;17.50;99.90;;;;;;5025560;28;20125;-42
2023/06/30 07:38:53;;;;;;;1.20;0.90;;;17.50;99.90;;;;;;5025972;28;20029;-44
2023/06/30 07:41:19;;;;;;;3.95;1.20;;;17.60;99.90;;;;;;5024610;28;20128;-41
2023/06/30 07:43:51;;;;;;;2.17;1.17;;;17.70;99.90;;;;;;5025164;28;20071;-42
2023/06/30 07:46:16;;;;;;;2.50;1.67;;;17.70;99.90;;;;;;5026573;28;20503;-42
2023/06/30 07:48:42;;;;;;;2.00;1.20;;;17.80;99.90;;;;;;5023561;28;20021;-42
2023/06/30 07:51:07;;;;;;;2.33;1.10;;;17.90;99.90;;;;;;5026150;28;20025;-42
2023/06/30 07:53:36;;;;;;;4.00;1.80;;;17.90;99.90;;;;;;5025074;28;20188;-42
2023/06/30 07:56:02;;;;;;;2.60;1.38;;;17.90;99.90;;;;;;5010096;28;20056;-41
2023/06/30 07:58:27;;;;;;;4.90;1.40;;;18.00;99.90;;;;;;5026264;28;20018;-42
2023/06/30 08:00:53;;;;;;;3.58;1.50;;;18.00;99.90;;;;;;5026274;28;20053;-42
2023/06/30 08:03:19;;;;;;;3.05;1.20;;;18.00;99.90;;;;;;5021148;28;20147;-42
2023/06/30 08:05:45;;;;;;;5.10;1.40;;;18.10;99.90;;;;;;5026765;28;20120;-42
2023/06/30 08:08:11;;;;;;;4.43;1.20;;;18.10;99.90;;;;;;5026152;28;20104;-42
2023/06/30 08:10:36;;;;;;;3.85;1.30;;;18.10;99.90;;;;;;5025921;28;20026;-42
2023/06/30 08:13:02;;;;;;;2.13;1.20;;;18.10;99.90;;;;;;5027253;28;20032;-42
2023/06/30 08:15:27;;;;;;;2.22;1.20;;;18.20;99.90;;;;;;5024365;28;20439;-42
2023/06/30 08:17:56;;;;;;;3.90;1.08;;;18.30;99.90;;;;;;5026108;28;20035;-43
2023/06/30 08:20:21;;;;;;;3.47;1.10;;;18.30;99.90;;;;;;5025946;28;20556;-42
2023/06/30 08:22:47;;;;;;;2.42;0.98;;;18.40;99.90;;;;;;5025349;28;20025;-42
2023/06/30 08:25:12;;;;;;;3.00;1.02;;;18.40;99.90;;;;;;5025698;28;20030;-42
2023/06/30 08:27:38;;;;;;;3.17;0.80;;;18.50;99.90;;;;;;5026299;28;20100;-43
2023/06/30 08:30:04;;;;;;;1.95;1.15;;;18.50;99.90;;;;;;5024389;28;20029;-42
2023/06/30 08:32:29;;;;;;;1.77;0.90;;;18.60;99.90;;;;;;5025244;28;20575;-42
2023/06/30 08:34:55;;;;;;;1.67;0.80;;;18.70;99.90;;;;;;5024538;28;20032;-42
2023/06/30 08:37:23;;;;;;;1.77;0.93;;;18.70;99.90;;;;;;5024932;28;20536;-43
2023/06/30 08:39:49;;;;;;;3.85;0.98;;;18.70;99.90;;;;;;5025597;28;20048;-43
2023/06/30 08:42:16;;;;;;;2.08;1.20;;;18.70;99.90;;;;;;5025350;28;20037;-42
2023/06/30 08:44:46;;;;;;;2.17;1.13;;;18.80;99.00;;;;;;5023952;28;20740;-42
2023/06/30 08:47:14;;;;;;;2.22;1.00;;;18.80;98.10;;;;;;5024569;28;20039;-42
2023/06/30 08:49:40;;;;;;;3.45;1.63;;;18.90;98.70;;;;;;5025424;28;20473;-42
2023/06/30 08:52:06;;;;;;;2.63;0.80;;;19.00;97.50;;;;;;5025031;28;20146;-43
2023/06/30 08:54:33;;;;;;;2.05;0.90;;;19.00;97.60;;;;;;5022653;28;21763;-42
2023/06/30 08:57:01;;;;;;;4.78;1.00;;;19.10;97.70;;;;;;5023246;28;20472;-42
2023/06/30 08:59:29;;;;;;;1.80;0.90;;;19.10;97.80;;;;;;5024655;28;20037;-42
2023/06/30 09:01:57;;;;;;;2.25;0.80;;;19.20;98.00;;;;;;5024040;28;20037;-42
2023/06/30 09:04:27;;;;;;;2.97;1.00;;;19.20;98.10;;;;;;5024108;28;20025;-43
2023/06/30 09:06:53;;;;;;;3.05;0.82;;;19.30;98.30;;;;;;5023913;28;20034;-43
2023/06/30 09:09:43;;;;;;;1.20;0.70;;;19.30;98.40;;;;;;5023726;28;20018;-43
2023/06/30 09:12:10;;;;;;;1.95;0.90;;;19.40;98.40;;;;;;5016084;28;20033;-43
2023/06/30 09:14:38;;;;;;;2.05;0.82;;;19.50;98.10;;;;;;5024457;28;20312;-42
2023/06/30 09:17:05;;;;;;;1.88;0.90;;;19.60;98.00;;;;;;5024995;28;20039;-43
2023/06/30 09:19:30;;;;;;;1.83;0.82;;;19.70;97.90;;;;;;5023179;28;20289;-43
2023/06/30 09:21:59;;;;;;;0.82;0.70;;;19.80;97.90;;;;;;5025206;28;20396;-42
2023/06/30 09:24:25;;;;;;;1.55;0.77;;;20.00;97.80;;;;;;5025811;28;20036;-43
2023/06/30 09:26:52;;;;;;;3.80;1.10;;;20.10;97.80;;;;;;5018861;28;20025;-43
2023/06/30 09:29:24;;;;;;;1.67;1.00;;;20.10;97.30;;;;;;5023895;28;20544;-43
2023/06/30 09:31:51;;;;;;;2.78;1.00;;;20.20;96.90;;;;;;5024394;28;20183;-43
2023/06/30 09:34:19;;;;;;;1.90;1.05;;;20.30;96.70;;;;;;5024697;28;20045;-43
2023/06/30 09:36:55;;;;;;;2.50;0.90;;;20.40;95.80;;;;;;5024487;28;20717;-43
2023/06/30 09:39:22;;;;;;;1.95;0.90;;;20.40;95.70;;;;;;5010230;28;20033;-43
2023/06/30 09:41:51;;;;;;;1.58;0.85;;;20.50;96.00;;;;;;5023897;28;20045;-43
2023/06/30 09:44:20;;;;;;;2.13;1.20;;;20.60;96.20;;;;;;5024694;28;20021;-42
2023/06/30 09:46:53;;;;;;;1.50;0.98;;;20.80;96.10;;;;;;5020716;28;20072;-42
2023/06/30 09:49:37;;;;;;;4.35;1.60;;;20.90;96.30;;;;;;5022780;28;20036;-42
2023/06/30 09:52:03;;;;;;;2.08;0.82;;;21.00;96.20;;;;;;5024387;28;20036;-42
2023/06/30 09:54:33;;;;;;;1.35;1.00;;;21.20;96.10;;;;;;5023935;28;20037;-43
2023/06/30 09:57:05;;;;;;;2.22;1.10;;;21.30;96.00;;;;;;5023619;28;20055;-43
2023/06/30 09:59:30;;;;;;;3.28;1.08;;;21.50;95.70;;;;;;5024013;28;20056;-43
2023/06/30 10:01:57;;;;;;;2.97;1.02;;;21.50;95.60;;;;;;5022635;28;20559;-42
2023/06/30 10:04:24;;;;;;;1.80;1.10;;;21.60;95.50;;;;;;5024132;28;20098;-42
2023/06/30 10:06:54;;;;;;;1.55;0.80;;;21.60;95.20;;;;;;5021643;28;20489;-43
2023/06/30 10:09:21;;;;;;;1.98;1.15;;;21.70;95.30;;;;;;5015660;28;20119;-43
2023/06/30 10:11:52;;;;;;;2.10;1.10;;;21.80;95.10;;;;;;5023758;28;20777;-42
2023/06/30 10:14:29;;;;;;;1.38;0.90;;;21.90;94.90;;;;;;5024609;28;20026;-42
2023/06/30 10:17:01;;;;;;;2.53;1.02;;;22.00;94.60;;;;;;5020242;28;20112;-42
2023/06/30 10:19:32;;;;;;;2.22;1.27;;;22.10;94.50;;;;;;5024616;28;20136;-42
2023/06/30 10:22:05;;;;;;;4.18;1.20;;;22.00;94.30;;;;;;5023848;28;20666;-42
2023/06/30 10:24:37;;;;;;;3.00;1.55;;;22.00;94.40;;;;;;5014482;28;20021;-42
2023/06/30 10:27:07;;;;;;;2.65;0.90;;;21.90;94.30;;;;;;5023185;28;20024;-42
2023/06/30 10:29:34;;;;;;;1.73;1.00;;;21.90;94.40;;;;;;5022488;28;20099;-42
2023/06/30 10:32:03;;;;;;;2.78;1.20;;;21.90;94.40;;;;;;5022708;28;20025;-42
2023/06/30 10:34:30;;;;;;;2.47;1.15;;;22.00;94.20;;;;;;5024095;28;20040;-41
2023/06/30 10:36:56;;;;;;;3.72;1.30;;;22.10;94.20;;;;;;5022244;28;20083;-41
2023/06/30 10:39:22;;;;;;;1.55;0.80;;;22.30;94.20;;;;;;5021357;28;20069;-42
2023/06/30 10:41:48;;;;;;;1.45;1.00;;;22.30;94.30;;;;;;5022771;28;20076;-41
2023/06/30 10:44:15;;;;;;;1.73;0.90;;;22.40;94.30;;;;;;5021301;28;20044;-42
2023/06/30 10:46:51;;;;;;;3.10;1.00;;;22.30;94.30;;;;;;5022762;28;20026;-42
2023/06/30 10:49:18;;;;;;;2.78;1.50;;;22.20;94.30;;;;;;5024148;28;20146;-43
2023/06/30 10:51:49;;;;;;;2.40;1.02;;;22.20;93.90;;;;;;5020105;28;20026;-43
2023/06/30 10:54:38;;;;;;;2.38;0.95;;;22.10;93.90;;;;;;5024038;28;20029;-43
2023/06/30 10:57:26;;;;;;;2.83;1.38;;;22.10;93.90;;;;;;5003822;28;20079;-43
2023/06/30 11:00:12;;;;;;;1.63;0.98;;;22.10;94.00;;;;;;5023419;28;20458;-43
2023/06/30 11:02:48;;;;;;;2.65;1.20;;;22.20;93.80;;;;;;5023432;28;20395;-42
2023/06/30 11:05:30;;;;;;;2.40;1.00;;;22.30;93.60;;;;;;5021052;28;20029;-43
2023/06/30 11:08:03;;;;;;;;;;;22.40;93.40;;;;;;5023261;28;20515;-41
2023/06/30 11:10:32;;;;;;;2.13;1.30;;;22.40;93.40;;;;;;5022791;28;20023;-41
2023/06/30 11:13:02;;;;;;;1.92;1.02;;;22.40;93.40;;;;;;5017578;28;20100;-41
2023/06/30 11:15:45;;;;;;;1.70;1.10;;;22.40;93.50;;;;;;5018077;28;20405;-42
2023/06/30 11:18:21;;;;;;;1.40;1.10;;;22.50;93.50;;;;;;5022711;28;20121;-41
2023/06/30 11:21:00;;;;;;;2.20;1.23;;;22.60;93.50;;;;;;5021691;28;20042;-41
2023/06/30 11:23:32;;;;;;;2.15;1.10;;;22.60;93.40;;;;;;5022287;28;20059;-41
2023/06/30 11:26:10;;;;;;;1.63;1.17;;;22.70;93.10;;;;;;5021607;28;20017;-41
2023/06/30 11:28:39;;;;;;;2.65;0.90;;;22.70;92.90;;;;;;5021455;28;20634;-41
2023/06/30 11:31:05;;;;;;;1.63;1.30;;;22.80;92.40;;;;;;5017873;28;20762;-42
2023/06/30 11:33:31;;;;;;;2.22;1.15;;;22.90;92.30;;;;;;5021849;28;20036;-42
2023/06/30 11:35:59;;;;;;;2.28;1.27;;;23.00;92.40;;;;;;5022748;28;20044;-42
2023/06/30 11:38:25;;;;;;;2.20;1.20;;;23.00;92.20;;;;;;5023664;28;20033;-42
2023/06/30 11:40:51;;;;;;;2.40;1.10;;;23.10;92.10;;;;;;5023920;28;20381;-42
2023/06/30 11:43:21;;;;;;;1.35;1.10;;;23.20;92.00;;;;;;5027262;28;20025;-42
2023/06/30 11:45:58;;;;;;;1.50;1.30;;;23.20;92.10;;;;;;5025717;28;20059;-42
2023/06/30 11:48:24;;;;;;;3.58;2.13;;;23.30;91.70;;;;;;5024828;28;20043;-43
2023/06/30 11:50:50;;;;;;;2.58;1.40;;;23.20;91.00;;;;;;5026743;28;20534;-43
2023/06/30 11:53:15;;;;;;;1.73;1.50;;;23.10;91.00;;;;;;5024138;28;20029;-41
2023/06/30 11:55:44;;;;;;;3.03;1.30;;;23.00;90.70;;;;;;5025691;28;20053;-42
2023/06/30 11:58:09;;;;;;;1.25;1.10;;;22.80;91.00;;;;;;5025073;28;20087;-42
2023/06/30 12:00:35;;;;;;;1.92;1.30;;;22.80;91.30;;;;;;5025812;28;20936;-42
2023/06/30 12:03:01;;;;;;;1.50;1.40;;;22.80;91.30;;;;;;5027113;28;20027;-42
2023/06/30 12:05:27;;;;;;;2.97;1.52;;;22.80;91.00;;;;;;5025767;28;20029;-42
2023/06/30 12:07:57;;;;;;;1.48;1.17;;;22.90;90.60;;;;;;5026464;28;20020;-42
2023/06/30 12:10:37;;;;;;;3.55;1.40;;;22.80;90.60;;;;;;5021115;28;20545;-42
2023/06/30 12:13:27;;;;;;;2.17;1.48;;;22.90;90.90;;;;;;5026472;28;20049;-41
2023/06/30 12:15:57;;;;;;;3.88;1.85;;;22.90;90.70;;;;;;5025851;28;20128;-43
2023/06/30 12:18:36;;;;;;;4.78;1.30;;;22.90;90.60;;;;;;5024528;28;20034;-42
2023/06/30 12:21:08;;;;;;;3.50;1.33;;;22.90;90.50;;;;;;5024345;28;20052;-42
2023/06/30 12:23:43;;;;;;;2.75;1.17;;;23.00;90.50;;;;;;5025763;28;20036;-43
2023/06/30 12:26:10;;;;;;;1.50;1.27;;;23.00;90.50;;;;;;5015120;28;20029;-43
2023/06/30 12:28:45;;;;;;;3.90;1.00;;;23.10;90.20;;;;;;5013408;28;20477;-43
2023/06/30 12:31:10;;;;;;;2.28;1.42;;;23.20;90.20;;;;;;5025844;28;20064;-43
2023/06/30 12:33:36;;;;;;;1.65;1.20;;;23.10;90.10;;;;;;5026194;28;20068;-43
2023/06/30 12:36:07;;;;;;;1.73;1.30;;;23.20;90.30;;;;;;5025530;28;20052;-43
2023/06/30 12:38:33;;;;;;;1.40;1.20;;;23.20;90.30;;;;;;5021597;28;20473;-42
2023/06/30 12:40:58;;;;;;;2.72;1.65;;;23.30;90.00;;;;;;5026840;28;20047;-43
2023/06/30 12:43:27;;;;;;;2.42;1.40;;;23.40;89.60;;;;;;5023450;28;20032;-43
2023/06/30 12:45:52;;;;;;;2.28;1.33;;;23.50;89.00;;;;;;5010168;28;20077;-42
2023/06/30 12:48:18;;;;;;;1.60;1.20;;;23.70;89.20;;;;;;5022435;28;20660;-42
2023/06/30 12:50:43;;;;;;;3.38;1.20;;;23.70;89.30;;;;;;5025353;28;20084;-43
2023/06/30 12:53:09;;;;;;;2.05;1.30;;;23.80;89.30;;;;;;5025768;28;20103;-42